Time,TemperatureF,DewpointF,PressureIn,WindDirection,WindDirectionDegrees,WindSpeedMPH,WindSpeedGustMPH,Humidity,HourlyPrecipIn,Conditions,Clouds,dailyrainin,SolarRadiationWatts/m^2,SoftwareType,DateUTC
2013-02-22 00:02:00,32.0,13.0,-100.00,SSE,152,0.0,0.0,45,0.00,,,0.00,0.000000,,2013-02-22 05:02:00,
2013-02-22 00:12:00,32.0,13.0,-100.00,SSE,152,0.0,0.0,45,0.00,,,0.00,0.000000,,2013-02-22 05:12:00,
2013-02-22 00:32:00,35.0,13.0,-100.00,SSE,151,0.0,0.0,39,0.00,,,0.00,0.000000,,2013-02-22 05:32:00,
2013-02-22 00:42:00,35.0,13.0,-100.00,SSE,151,0.0,0.0,39,0.00,,,0.00,0.000000,,2013-02-22 05:42:00,
2013-02-22 00:52:00,35.0,13.0,-100.00,SSE,151,0.0,0.0,39,0.00,,,0.00,0.000000,,2013-02-22 05:52:00,
2013-02-22 01:02:00,35.0,13.0,-100.00,SSE,151,0.0,0.0,39,0.00,,,0.00,0.000000,,2013-02-22 06:02:00,
2013-02-22 01:12:00,35.0,13.0,-100.00,SSE,151,0.0,0.0,39,0.00,,,0.00,0.000000,,2013-02-22 06:12:00,
2013-02-22 01:32:00,35.0,13.0,-100.00,SSE,156,0.0,0.0,39,0.00,,,0.00,0.000000,,2013-02-22 06:32:00,
2013-02-22 01:42:00,35.0,13.0,-100.00,SSE,156,0.0,0.0,39,0.00,,,0.00,0.000000,,2013-02-22 06:42:00,
2013-02-22 01:52:00,35.0,13.0,-100.00,SSE,156,0.0,0.0,39,0.00,,,0.00,0.000000,,2013-02-22 06:52:00,
2013-02-22 02:01:00,35.0,13.0,-100.00,SSE,156,0.0,0.0,39,0.00,,,0.00,0.000000,,2013-02-22 07:01:00,
2013-02-22 02:11:00,35.0,13.0,-100.00,SSE,156,0.0,0.0,39,0.00,,,0.00,0.000000,,2013-02-22 07:11:00,
2013-02-22 02:42:00,32.0,25.0,-100.00,SE,146,0.0,0.0,74,0.00,,,-99.99,0.000000,,2013-02-22 07:42:00,
2013-02-22 02:52:00,32.0,25.0,-100.00,SE,146,0.0,0.0,74,0.00,,,-99.99,0.000000,,2013-02-22 07:52:00,
2013-02-22 03:01:00,32.0,25.0,-100.00,SE,146,0.0,0.0,74,0.00,,,-99.99,0.000000,,2013-02-22 08:01:00,
2013-02-22 03:11:00,32.0,25.0,-100.00,SE,146,0.0,0.0,74,0.00,,,-99.99,0.000000,,2013-02-22 08:11:00,
2013-02-22 03:42:00,31.0,29.0,-100.00,SE,136,0.0,0.0,91,0.01,,,0.01,0.000000,,2013-02-22 08:42:00,
2013-02-22 03:52:00,31.0,29.0,-100.00,SE,136,0.0,0.0,91,0.01,,,0.01,0.000000,,2013-02-22 08:52:00,
2013-02-22 04:03:00,31.0,29.0,-100.00,SE,136,0.0,0.0,91,0.01,,,0.01,0.000000,,2013-02-22 09:03:00,
2013-02-22 04:11:00,31.0,29.0,-100.00,SE,136,0.0,0.0,91,0.01,,,0.01,0.000000,,2013-02-22 09:11:00,
2013-02-22 04:32:00,30.0,28.0,-100.00,SE,137,0.0,0.0,92,0.00,,,0.01,0.000000,,2013-02-22 09:32:00,
2013-02-22 04:42:00,30.0,28.0,-100.00,SE,137,0.0,0.0,92,0.00,,,0.01,0.000000,,2013-02-22 09:42:00,
2013-02-22 04:52:00,30.0,28.0,-100.00,SE,137,0.0,0.0,92,0.00,,,0.01,0.000000,,2013-02-22 09:52:00,
2013-02-22 05:01:00,30.0,28.0,-100.00,SE,137,0.0,0.0,92,0.00,,,0.01,0.000000,,2013-02-22 10:01:00,
2013-02-22 05:11:00,30.0,28.0,-100.00,SE,137,0.0,0.0,92,0.00,,,0.01,0.000000,,2013-02-22 10:11:00,
2013-02-22 05:42:00,30.0,28.0,-100.00,SE,141,0.0,0.0,93,0.00,,,0.01,0.000000,,2013-02-22 10:42:00,
2013-02-22 05:52:00,30.0,28.0,-100.00,SE,141,0.0,0.0,93,0.00,,,0.01,0.000000,,2013-02-22 10:52:00,
2013-02-22 06:01:00,30.0,28.0,-100.00,SE,141,0.0,0.0,93,0.00,,,0.01,0.000000,,2013-02-22 11:01:00,
2013-02-22 06:11:00,30.0,28.0,-100.00,SE,141,0.0,0.0,93,0.00,,,0.01,0.000000,,2013-02-22 11:11:00,
2013-02-22 06:42:00,29.0,27.0,-100.00,SE,142,0.0,0.0,94,0.00,,,0.01,0.000000,,2013-02-22 11:42:00,
2013-02-22 06:52:00,29.0,27.0,-100.00,SE,142,0.0,0.0,94,0.00,,,0.01,0.000000,,2013-02-22 11:52:00,
2013-02-22 07:02:00,29.0,27.0,-100.00,SE,142,0.0,0.0,94,0.00,,,0.01,0.000000,,2013-02-22 12:02:00,
2013-02-22 07:11:00,29.0,27.0,-100.00,SE,142,0.0,0.0,94,0.00,,,0.01,0.000000,,2013-02-22 12:11:00,
2013-02-22 07:42:00,29.0,27.0,-100.00,SE,145,0.0,0.0,94,0.00,,,0.01,0.000000,,2013-02-22 12:42:00,
2013-02-22 07:52:00,29.0,27.0,-100.00,SE,145,0.0,0.0,94,0.00,,,0.01,0.000000,,2013-02-22 12:52:00,
2013-02-22 08:02:00,29.0,27.0,-100.00,SE,145,0.0,0.0,94,0.00,,,0.01,0.000000,,2013-02-22 13:02:00,
2013-02-22 08:11:00,29.0,27.0,-100.00,SE,145,0.0,0.0,94,0.00,,,0.01,0.000000,,2013-02-22 13:11:00,
2013-02-22 08:42:00,29.0,27.0,-100.00,SSE,148,0.0,0.0,94,0.00,,,0.01,8.000000,,2013-02-22 13:42:00,
2013-02-22 08:52:00,29.0,27.0,-100.00,SSE,148,0.0,0.0,94,0.00,,,0.01,8.000000,,2013-02-22 13:52:00,
2013-02-22 09:01:00,29.0,27.0,-100.00,SSE,148,0.0,0.0,94,0.00,,,0.01,8.000000,,2013-02-22 14:01:00,
2013-02-22 09:11:00,29.0,27.0,-100.00,SSE,148,0.0,0.0,94,0.00,,,0.01,8.000000,,2013-02-22 14:11:00,
2013-02-22 09:32:00,30.0,29.0,-100.00,SSE,150,0.0,0.0,95,0.00,,,0.01,29.000000,,2013-02-22 14:32:00,
2013-02-22 09:42:00,30.0,29.0,-100.00,SSE,150,0.0,0.0,95,0.00,,,0.01,29.000000,,2013-02-22 14:42:00,
2013-02-22 09:53:00,30.0,29.0,-100.00,SSE,150,0.0,0.0,95,0.00,,,0.01,29.000000,,2013-02-22 14:53:00,
2013-02-22 10:02:00,30.0,29.0,-100.00,SSE,150,0.0,0.0,95,0.00,,,0.01,29.000000,,2013-02-22 15:02:00,
2013-02-22 10:12:00,30.0,29.0,-100.00,SSE,150,0.0,0.0,95,0.00,,,0.01,29.000000,,2013-02-22 15:12:00,
2013-02-22 10:42:00,31.0,30.0,-100.00,SE,140,0.0,0.0,95,0.00,,,0.01,78.000000,,2013-02-22 15:42:00,
2013-02-22 10:52:00,31.0,30.0,-100.00,SE,140,0.0,0.0,95,0.00,,,0.01,78.000000,,2013-02-22 15:52:00,
2013-02-22 11:02:00,31.0,30.0,-100.00,SE,140,0.0,0.0,95,0.00,,,0.01,78.000000,,2013-02-22 16:02:00,
2013-02-22 11:12:00,31.0,30.0,-100.00,SE,140,0.0,0.0,95,0.00,,,0.01,78.000000,,2013-02-22 16:12:00,
2013-02-22 11:42:00,31.0,29.0,-100.00,SE,124,0.0,0.0,94,0.04,,,0.05,128.000000,,2013-02-22 16:42:00,
2013-02-22 11:52:00,31.0,29.0,-100.00,SE,124,0.0,0.0,94,0.04,,,0.05,128.000000,,2013-02-22 16:52:00,
2013-02-22 12:01:00,31.0,29.0,-100.00,SE,124,0.0,0.0,94,0.04,,,0.05,128.000000,,2013-02-22 17:01:00,
2013-02-22 12:11:00,31.0,29.0,-100.00,SE,124,0.0,0.0,94,0.04,,,0.05,128.000000,,2013-02-22 17:11:00,
2013-02-22 12:42:00,35.0,33.0,-100.00,SE,129,0.0,0.0,93,0.11,,,0.16,270.000000,,2013-02-22 17:42:00,
2013-02-22 12:52:00,35.0,33.0,-100.00,SE,129,0.0,0.0,93,0.11,,,0.16,270.000000,,2013-02-22 17:52:00,
2013-02-22 13:02:00,35.0,33.0,-100.00,SE,129,0.0,0.0,93,0.11,,,0.16,270.000000,,2013-02-22 18:02:00,
2013-02-22 13:12:00,35.0,33.0,-100.00,SE,129,0.0,0.0,93,0.11,,,0.16,270.000000,,2013-02-22 18:12:00,
2013-02-22 13:42:00,40.0,38.0,-100.00,SE,144,0.0,0.0,91,0.02,,,0.18,411.000000,,2013-02-22 18:42:00,
2013-02-22 13:52:00,40.0,38.0,-100.00,SE,144,0.0,0.0,91,0.02,,,0.18,411.000000,,2013-02-22 18:52:00,
2013-02-22 14:01:00,40.0,38.0,-100.00,SE,144,0.0,0.0,91,0.02,,,0.18,411.000000,,2013-02-22 19:01:00,
2013-02-22 14:11:00,40.0,38.0,-100.00,SE,144,0.0,0.0,91,0.02,,,0.18,411.000000,,2013-02-22 19:11:00,
2013-02-22 14:31:00,42.0,38.0,-100.00,SSE,154,0.0,0.0,84,0.00,,,0.18,410.000000,,2013-02-22 19:31:00,
2013-02-22 14:42:00,42.0,38.0,-100.00,SSE,154,0.0,0.0,84,0.00,,,0.18,410.000000,,2013-02-22 19:42:00,
2013-02-22 14:52:00,42.0,38.0,-100.00,SSE,154,0.0,0.0,84,0.00,,,0.18,410.000000,,2013-02-22 19:52:00,
2013-02-22 15:01:00,42.0,38.0,-100.00,SSE,154,0.0,0.0,84,0.00,,,0.18,410.000000,,2013-02-22 20:01:00,
2013-02-22 15:11:00,42.0,38.0,-100.00,SSE,154,0.0,0.0,84,0.00,,,0.18,410.000000,,2013-02-22 20:11:00,
2013-02-22 15:42:00,44.0,37.0,-100.00,SSE,160,0.0,0.0,76,0.00,,,0.18,355.000000,,2013-02-22 20:42:00,
2013-02-22 15:52:00,44.0,37.0,-100.00,SSE,160,0.0,0.0,76,0.00,,,0.18,355.000000,,2013-02-22 20:52:00,
2013-02-22 16:02:00,44.0,37.0,-100.00,SSE,160,0.0,0.0,76,0.00,,,0.18,355.000000,,2013-02-22 21:02:00,
2013-02-22 16:11:00,44.0,37.0,-100.00,SSE,160,0.0,0.0,76,0.00,,,0.18,355.000000,,2013-02-22 21:11:00,
2013-02-22 16:42:00,42.0,34.0,-100.00,SSE,158,0.0,0.0,74,0.00,,,0.18,212.000000,,2013-02-22 21:42:00,
2013-02-22 16:52:00,42.0,34.0,-100.00,SSE,158,0.0,0.0,74,0.00,,,0.18,212.000000,,2013-02-22 21:52:00,
2013-02-22 17:01:00,42.0,34.0,-100.00,SSE,158,0.0,0.0,74,0.00,,,0.18,212.000000,,2013-02-22 22:01:00,
2013-02-22 17:11:00,42.0,34.0,-100.00,SSE,158,0.0,0.0,74,0.00,,,0.18,212.000000,,2013-02-22 22:11:00,
2013-02-22 17:42:00,40.0,34.0,-100.00,SE,146,0.0,0.0,80,0.00,,,0.18,93.000000,,2013-02-22 22:42:00,
2013-02-22 17:52:00,40.0,34.0,-100.00,SE,146,0.0,0.0,80,0.00,,,0.18,93.000000,,2013-02-22 22:52:00,
2013-02-22 18:01:00,40.0,34.0,-100.00,SE,146,0.0,0.0,80,0.00,,,0.18,93.000000,,2013-02-22 23:01:00,
2013-02-22 18:11:00,40.0,34.0,-100.00,SE,146,0.0,0.0,80,0.00,,,0.18,93.000000,,2013-02-22 23:11:00,
2013-02-22 18:42:00,36.0,33.0,-100.00,SE,131,0.0,0.0,87,0.00,,,0.18,24.000000,,2013-02-22 23:42:00,
2013-02-22 18:52:00,36.0,33.0,-100.00,SE,131,0.0,0.0,87,0.00,,,0.18,24.000000,,2013-02-22 23:52:00,
2013-02-22 19:02:00,36.0,33.0,-100.00,SE,131,0.0,0.0,87,0.00,,,0.18,24.000000,,2013-02-23 00:02:00,
2013-02-22 19:11:00,36.0,33.0,-100.00,SE,131,0.0,0.0,87,0.00,,,0.18,24.000000,,2013-02-23 00:11:00,
2013-02-22 19:32:00,34.0,32.0,-100.00,East,88,0.0,0.0,91,0.00,,,0.18,0.000000,,2013-02-23 00:32:00,
2013-02-22 19:42:00,34.0,32.0,-100.00,East,88,0.0,0.0,91,0.00,,,0.18,0.000000,,2013-02-23 00:42:00,
2013-02-22 19:52:00,34.0,32.0,-100.00,East,88,0.0,0.0,91,0.00,,,0.18,0.000000,,2013-02-23 00:52:00,
2013-02-22 20:01:00,34.0,32.0,-100.00,East,88,0.0,0.0,91,0.00,,,0.18,0.000000,,2013-02-23 01:01:00,
2013-02-22 20:11:00,34.0,32.0,-100.00,East,88,0.0,0.0,91,0.00,,,0.18,0.000000,,2013-02-23 01:11:00,
2013-02-22 20:32:00,34.0,32.0,-100.00,SE,140,0.0,0.0,91,0.00,,,0.18,0.000000,,2013-02-23 01:32:00,
2013-02-22 20:42:00,34.0,32.0,-100.00,SE,140,0.0,0.0,91,0.00,,,0.18,0.000000,,2013-02-23 01:42:00,
2013-02-22 20:52:00,34.0,32.0,-100.00,SE,140,0.0,0.0,91,0.00,,,0.18,0.000000,,2013-02-23 01:52:00,
2013-02-22 21:01:00,34.0,32.0,-100.00,SE,140,0.0,0.0,91,0.00,,,0.18,0.000000,,2013-02-23 02:01:00,
2013-02-22 21:11:00,34.0,32.0,-100.00,SE,140,0.0,0.0,91,0.00,,,0.18,0.000000,,2013-02-23 02:11:00,
2013-02-22 21:42:00,34.0,32.0,-100.00,SE,143,0.0,0.0,93,0.00,,,0.18,0.000000,,2013-02-23 02:42:00,
2013-02-22 21:52:00,34.0,32.0,-100.00,SE,143,0.0,0.0,93,0.00,,,0.18,0.000000,,2013-02-23 02:52:00,
2013-02-22 22:02:00,34.0,32.0,-100.00,SE,143,0.0,0.0,93,0.00,,,0.18,0.000000,,2013-02-23 03:02:00,
2013-02-22 22:11:00,34.0,32.0,-100.00,SE,143,0.0,0.0,93,0.00,,,0.18,0.000000,,2013-02-23 03:11:00,
2013-02-22 22:42:00,33.0,31.0,-100.00,SE,142,0.0,0.0,94,0.00,,,0.18,0.000000,,2013-02-23 03:42:00,
2013-02-22 22:52:00,33.0,31.0,-100.00,SE,142,0.0,0.0,94,0.00,,,0.18,0.000000,,2013-02-23 03:52:00,
2013-02-22 23:01:00,33.0,31.0,-100.00,SE,142,0.0,0.0,94,0.00,,,0.18,0.000000,,2013-02-23 04:01:00,
2013-02-22 23:11:00,33.0,31.0,-100.00,SE,142,0.0,0.0,94,0.00,,,0.18,0.000000,,2013-02-23 04:11:00,
2013-02-22 23:32:00,33.0,31.0,-100.00,SE,130,0.0,0.0,94,0.00,,,0.18,0.000000,,2013-02-23 04:32:00,
2013-02-22 23:42:00,33.0,31.0,-100.00,SE,130,0.0,0.0,94,0.00,,,0.18,0.000000,,2013-02-23 04:42:00,
2013-02-22 23:52:00,33.0,31.0,-100.00,SE,130,0.0,0.0,94,0.00,,,0.18,0.000000,,2013-02-23 04:52:00,